Time;durP1;ratioP1;P1;durP2;ratioP2;P2;SDS_P1;SDS_P2;PMS_P1;PMS_P2;Temp;Humidity;BMP_temperature;BMP_pressure;BME280_temperature;BME280_humidity;BME280_pressure;Samples;Min_cycle;Max_cycle;Signal;HPM_P1;HPM_P2
2022/06/02 00:02:22;;;;;;;10.23;5.97;;;15.70;58.60;;;;;;5041282;28;20204;-94
2022/06/02 00:05:06;;;;;;;12.20;7.13;;;15.70;58.90;;;;;;5042669;28;20230;-94
2022/06/02 00:07:44;;;;;;;11.93;6.30;;;15.60;58.60;;;;;;5033348;28;20236;-93
2022/06/02 00:10:26;;;;;;;12.03;6.67;;;15.60;58.40;;;;;;5035783;28;20214;-94
2022/06/02 00:13:03;;;;;;;12.57;7.10;;;15.50;58.70;;;;;;5048197;28;20235;-94
2022/06/02 00:15:37;;;;;;;12.00;6.90;;;15.50;58.50;;;;;;5051294;28;20218;-95
2022/06/02 00:18:15;;;;;;;11.50;6.63;;;15.50;58.70;;;;;;5051063;28;20239;-93
2022/06/02 00:20:50;;;;;;;12.93;7.40;;;15.40;59.30;;;;;;5033862;28;20232;-93
2022/06/02 00:24:13;;;;;;;12.67;7.17;;;15.40;58.60;;;;;;5045370;28;20656;-95
2022/06/02 00:26:54;;;;;;;9.53;5.70;;;15.30;58.80;;;;;;5017009;28;20235;-93
2022/06/02 00:29:32;;;;;;;10.70;6.60;;;15.30;58.40;;;;;;5057051;28;20212;-95
2022/06/02 00:32:10;;;;;;;9.77;6.33;;;15.30;58.40;;;;;;5056159;28;20232;-95
2022/06/02 00:34:53;;;;;;;11.87;7.30;;;15.20;58.70;;;;;;5043923;28;20262;-94
2022/06/02 00:37:35;;;;;;;13.83;7.53;;;15.20;58.90;;;;;;5039471;28;20216;-94
2022/06/02 00:40:07;;;;;;;13.73;7.30;;;15.20;59.00;;;;;;5039012;28;20208;-94
2022/06/02 00:43:00;;;;;;;11.07;7.13;;;15.20;58.60;;;;;;5042054;28;20252;-95
2022/06/02 00:45:31;;;;;;;11.33;6.93;;;15.10;59.70;;;;;;5044770;28;20216;-94
2022/06/02 00:48:13;;;;;;;9.43;6.50;;;15.10;59.30;;;;;;5045483;28;20228;-93
2022/06/02 00:50:50;;;;;;;10.23;6.80;;;15.10;59.70;;;;;;5063568;28;20203;-93
2022/06/02 00:53:33;;;;;;;12.10;6.87;;;15.00;59.60;;;;;;5064343;28;20196;-93
2022/06/02 00:59:05;;;;;;;10.20;6.67;;;14.90;59.80;;;;;;5059975;28;20264;-94
2022/06/02 01:01:36;;;;;;;12.43;7.40;;;14.90;59.80;;;;;;5053292;28;20253;-93
2022/06/02 01:04:16;;;;;;;15.47;8.03;;;14.80;59.70;;;;;;5043601;28;20238;-94
2022/06/02 01:06:58;;;;;;;9.53;6.57;;;14.80;60.20;;;;;;5046234;28;20211;-94
2022/06/02 01:09:47;;;;;;;10.87;6.57;;;14.80;60.10;;;;;;5038522;28;20209;-95
2022/06/02 01:12:30;;;;;;;9.40;6.20;;;14.70;60.10;;;;;;5045048;28;20320;-94
2022/06/02 01:15:12;;;;;;;11.27;7.17;;;14.70;60.10;;;;;;5055543;28;20202;-94
2022/06/02 01:18:05;;;;;;;15.47;8.30;;;14.70;59.60;;;;;;5057110;28;20212;-93
2022/06/02 01:20:46;;;;;;;13.50;8.77;;;14.70;59.70;;;;;;5034492;28;20209;-95
2022/06/02 01:27:13;;;;;;;17.13;9.07;;;14.60;59.90;;;;;;5046485;28;20200;-94
2022/06/02 01:30:13;;;;;;;13.43;8.73;;;14.50;59.90;;;;;;5036949;28;20710;-94
2022/06/02 01:32:59;;;;;;;15.43;8.93;;;14.50;59.70;;;;;;5041611;28;20205;-94
2022/06/02 01:35:32;;;;;;;14.60;8.53;;;14.40;60.00;;;;;;5039964;28;20205;-94
2022/06/02 01:38:06;;;;;;;10.73;7.63;;;14.30;59.90;;;;;;5029421;28;20210;-94
2022/06/02 01:40:45;;;;;;;12.67;8.20;;;14.30;60.40;;;;;;5024803;28;20200;-93
2022/06/02 01:43:17;;;;;;;15.13;8.77;;;14.20;60.70;;;;;;5028578;28;20275;-93
2022/06/02 01:46:15;;;;;;;13.43;8.00;;;14.20;60.60;;;;;;5048710;28;20220;-94
2022/06/02 01:48:58;;;;;;;12.67;7.53;;;14.20;61.40;;;;;;5033605;28;20692;-94
2022/06/02 01:51:56;;;;;;;10.67;7.43;;;14.10;61.10;;;;;;5028269;28;20269;-94
2022/06/02 01:54:33;;;;;;;12.03;7.20;;;14.00;61.50;;;;;;5025973;28;20245;-92
2022/06/02 01:57:15;;;;;;;12.70;8.03;;;14.00;61.10;;;;;;5038955;28;20207;-93
2022/06/02 01:59:53;;;;;;;12.53;7.63;;;14.00;61.30;;;;;;5038244;28;20204;-94
2022/06/02 02:02:53;;;;;;;15.53;8.80;;;14.00;61.40;;;;;;5042404;28;20206;-94
2022/06/02 02:08:59;;;;;;;24.43;10.33;;;13.90;61.60;;;;;;5047541;28;20221;-93
2022/06/02 02:11:42;;;;;;;15.00;8.07;;;13.90;62.30;;;;;;5072624;28;20209;-93
2022/06/02 02:14:39;;;;;;;16.00;8.03;;;13.90;61.40;;;;;;5054271;28;20261;-93
2022/06/02 02:17:19;;;;;;;13.67;8.20;;;13.80;61.00;;;;;;5035361;28;20201;-94
2022/06/02 02:19:57;;;;;;;13.57;8.10;;;13.80;60.70;;;;;;5049248;28;20498;-93
2022/06/02 02:23:10;;;;;;;15.63;8.50;;;13.80;61.10;;;;;;5062351;28;20207;-94
2022/06/02 02:25:53;;;;;;;16.80;8.97;;;13.80;61.90;;;;;;5039872;28;20224;-93
2022/06/02 02:28:32;;;;;;;21.00;9.63;;;13.70;61.00;;;;;;5037654;28;20227;-94
2022/06/02 02:31:12;;;;;;;15.73;8.93;;;13.70;60.80;;;;;;5041747;28;20210;-94
2022/06/02 02:33:59;;;;;;;16.47;8.97;;;13.70;61.20;;;;;;5043459;28;20209;-95
2022/06/02 02:36:34;;;;;;;11.60;7.80;;;13.70;61.80;;;;;;5046500;28;20264;-93
2022/06/02 02:39:18;;;;;;;11.87;7.73;;;13.70;61.80;;;;;;5031608;28;20202;-94
2022/06/02 02:41:52;;;;;;;11.40;8.13;;;13.70;62.10;;;;;;5027297;28;20652;-93
2022/06/02 02:44:29;;;;;;;14.97;8.47;;;13.60;61.70;;;;;;5058956;28;20212;-94
2022/06/02 02:47:03;;;;;;;12.63;8.47;;;13.60;61.80;;;;;;5056508;28;20254;-94
2022/06/02 02:49:38;;;;;;;12.43;8.63;;;13.50;61.60;;;;;;5044803;28;20208;-94
2022/06/02 02:52:18;;;;;;;11.97;8.43;;;13.50;61.80;;;;;;5023508;28;20233;-93
2022/06/02 02:55:00;;;;;;;15.57;8.87;;;13.50;62.10;;;;;;5025508;28;20210;-93
2022/06/02 02:57:44;;;;;;;16.03;9.70;;;13.40;61.50;;;;;;5058169;28;20209;-94
2022/06/02 03:00:16;;;;;;;13.50;8.80;;;13.40;61.50;;;;;;5038242;28;20232;-93
2022/06/02 03:02:54;;;;;;;12.27;9.00;;;13.40;60.90;;;;;;5039287;28;20216;-94
2022/06/02 03:05:34;;;;;;;15.70;9.30;;;13.40;61.00;;;;;;5030144;28;20257;-94
2022/06/02 03:08:10;;;;;;;14.57;9.67;;;13.40;61.30;;;;;;5034879;28;20225;-93
2022/06/02 03:10:45;;;;;;;15.30;8.67;;;13.40;61.20;;;;;;5046627;28;20250;-94
2022/06/02 03:13:33;;;;;;;15.27;8.83;;;13.30;61.30;;;;;;5039825;28;20539;-95
2022/06/02 03:16:07;;;;;;;13.10;8.10;;;13.30;61.40;;;;;;5040534;28;20260;-94
2022/06/02 03:19:02;;;;;;;14.40;8.60;;;13.30;61.20;;;;;;5040118;28;20229;-94
2022/06/02 03:21:36;;;;;;;10.90;8.00;;;13.30;61.70;;;;;;5037673;28;20230;-93
2022/06/02 03:24:43;;;;;;;14.60;7.47;;;13.20;61.70;;;;;;5039840;28;20665;-93
2022/06/02 03:27:24;;;;;;;11.27;7.57;;;13.10;61.60;;;;;;5001659;28;20306;-94
2022/06/02 03:30:13;;;;;;;11.27;8.07;;;13.10;61.40;;;;;;5018634;28;20234;-93
2022/06/02 03:33:04;;;;;;;15.30;8.47;;;13.10;61.80;;;;;;5033210;28;20202;-94
2022/06/02 03:35:43;;;;;;;12.23;8.23;;;13.10;62.50;;;;;;5039011;28;20228;-93
2022/06/02 03:38:41;;;;;;;12.77;8.40;;;13.00;62.50;;;;;;5016614;28;20296;-93
2022/06/02 03:41:24;;;;;;;19.30;9.80;;;13.00;62.40;;;;;;5025590;28;20201;-92
2022/06/02 03:43:58;;;;;;;11.90;8.67;;;12.90;61.80;;;;;;5050589;28;20200;-93
2022/06/02 03:46:42;;;;;;;14.30;8.00;;;12.90;62.20;;;;;;5035363;28;20717;-93
2022/06/02 03:49:34;;;;;;;16.00;8.87;;;12.90;63.10;;;;;;5027254;28;20248;-93
2022/06/02 03:52:23;;;;;;;11.40;7.57;;;12.90;63.30;;;;;;5025273;28;20197;-93
2022/06/02 03:55:05;;;;;;;16.37;9.43;;;12.90;63.50;;;;;;5034881;28;20201;-93
2022/06/02 03:57:58;;;;;;;11.83;8.30;;;12.80;63.90;;;;;;5052080;28;20212;-92
2022/06/02 04:00:37;;;;;;;12.93;8.60;;;12.80;62.90;;;;;;5034362;28;20205;-93
2022/06/02 04:03:08;;;;;;;11.83;8.10;;;12.70;62.70;;;;;;5035147;28;20575;-93
2022/06/02 04:05:58;;;;;;;15.90;9.37;;;12.70;62.60;;;;;;5032693;28;20315;-93
2022/06/02 04:08:42;;;;;;;13.37;8.27;;;12.70;63.50;;;;;;5054492;28;20233;-94
2022/06/02 04:11:23;;;;;;;16.63;9.63;;;12.70;63.80;;;;;;5038549;28;20657;-94
2022/06/02 04:14:03;;;;;;;13.90;9.07;;;12.70;63.60;;;;;;5032963;28;20212;-93
2022/06/02 04:16:53;;;;;;;16.53;9.13;;;12.70;63.90;;;;;;5032815;28;20201;-94
2022/06/02 04:22:52;;;;;;;17.87;10.00;;;12.70;65.30;;;;;;5044350;28;20333;-94
2022/06/02 04:25:35;;;;;;;20.13;9.23;;;12.60;64.50;;;;;;5033398;28;20733;-95
2022/06/02 04:28:12;;;;;;;17.77;9.90;;;12.60;64.30;;;;;;5042740;28;20323;-94
2022/06/02 04:31:00;;;;;;;17.63;9.67;;;12.60;64.60;;;;;;5042237;28;20232;-94
2022/06/02 04:33:34;;;;;;;19.47;10.50;;;12.70;65.40;;;;;;5039593;28;20309;-93
2022/06/02 04:36:13;;;;;;;17.20;9.20;;;12.70;65.20;;;;;;5014965;28;20305;-93
2022/06/02 04:38:52;;;;;;;24.40;11.67;;;12.70;65.40;;;;;;5032677;28;20202;-93
2022/06/02 04:41:28;;;;;;;18.60;10.63;;;12.70;66.00;;;;;;5037137;28;20232;-93
2022/06/02 04:44:07;;;;;;;21.93;11.17;;;12.80;66.40;;;;;;5031656;28;20201;-94
2022/06/02 04:46:46;;;;;;;13.30;9.13;;;12.80;66.60;;;;;;5018166;28;20209;-93
2022/06/02 04:49:23;;;;;;;15.17;10.23;;;12.80;66.90;;;;;;5034976;28;20883;-91
2022/06/02 04:52:04;;;;;;;15.43;9.67;;;12.80;66.80;;;;;;5020794;28;20701;-93
2022/06/02 04:54:42;;;;;;;12.23;8.83;;;12.90;67.30;;;;;;5019592;28;20235;-93
2022/06/02 04:57:20;;;;;;;15.20;9.80;;;12.90;66.30;;;;;;5035851;28;20208;-93
2022/06/02 04:59:58;;;;;;;16.63;10.13;;;12.90;66.50;;;;;;5036247;28;20305;-93
2022/06/02 05:02:43;;;;;;;18.10;11.07;;;13.00;66.70;;;;;;5040701;28;20629;-91
2022/06/02 05:05:17;;;;;;;14.53;10.50;;;13.10;67.60;;;;;;5013198;28;20258;-92
2022/06/02 05:08:00;;;;;;;20.03;11.90;;;13.10;67.00;;;;;;5024773;28;20205;-91
2022/06/02 05:10:35;;;;;;;15.87;10.83;;;13.20;67.50;;;;;;5050899;28;20694;-91
2022/06/02 05:13:13;;;;;;;22.60;12.30;;;13.20;67.90;;;;;;5037498;28;20207;-92
2022/06/02 05:16:07;;;;;;;17.73;11.23;;;13.20;68.00;;;;;;5029914;28;20243;-92
2022/06/02 05:19:05;;;;;;;21.50;12.23;;;13.30;68.80;;;;;;5046131;28;20220;-90
2022/06/02 05:21:50;;;;;;;18.30;11.60;;;13.40;68.40;;;;;;5067654;28;20212;-90
2022/06/02 05:24:51;;;;;;;16.97;11.37;;;13.40;68.30;;;;;;5036568;28;20565;-92
2022/06/02 05:28:01;;;;;;;16.43;11.63;;;13.50;68.90;;;;;;5014924;28;20210;-93
2022/06/02 05:31:00;;;;;;;14.83;10.83;;;13.50;69.00;;;;;;5013400;28;20216;-92
2022/06/02 05:34:05;;;;;;;15.87;11.27;;;13.60;69.20;;;;;;5020132;28;20222;-91
2022/06/02 05:36:41;;;;;;;17.60;11.63;;;13.70;69.40;;;;;;5032260;28;20210;-91
2022/06/02 05:39:43;;;;;;;17.47;11.53;;;13.70;68.70;;;;;;5042389;28;20206;-91
2022/06/02 05:42:31;;;;;;;15.73;10.87;;;13.80;69.70;;;;;;5029815;28;20204;-91
2022/06/02 05:45:09;;;;;;;26.57;13.37;;;13.80;69.50;;;;;;5046341;28;20213;-91
2022/06/02 05:47:58;;;;;;;19.03;11.67;;;13.90;69.30;;;;;;5059924;28;20202;-90
2022/06/02 05:50:39;;;;;;;20.03;12.00;;;14.00;69.90;;;;;;5038273;28;20208;-91
2022/06/02 05:53:18;;;;;;;14.50;10.30;;;14.00;69.80;;;;;;5029540;28;20215;-91
2022/06/02 05:56:03;;;;;;;16.37;10.23;;;14.10;69.50;;;;;;5031670;28;20242;-90
2022/06/02 05:58:57;;;;;;;15.47;9.90;;;14.20;70.00;;;;;;5032175;28;20295;-90
2022/06/02 06:01:47;;;;;;;23.20;11.03;;;14.20;70.40;;;;;;5013866;28;20293;-87
2022/06/02 06:07:51;;;;;;;14.77;10.33;;;14.40;70.90;;;;;;5039210;28;20663;-96
2022/06/02 06:10:30;;;;;;;17.30;11.00;;;14.50;71.10;;;;;;5038412;28;20318;-93
2022/06/02 06:13:45;;;;;;;15.10;10.27;;;14.60;71.20;;;;;;5040952;28;20302;-94
2022/06/02 06:16:21;;;;;;;24.53;13.23;;;14.70;71.80;;;;;;4978731;28;20201;-95
2022/06/02 06:19:04;;;;;;;14.57;10.30;;;14.80;71.40;;;;;;5001621;28;20292;-92
2022/06/02 06:21:47;;;;;;;18.47;11.17;;;14.80;71.10;;;;;;5072367;28;20293;-94
2022/06/02 06:24:52;;;;;;;13.37;10.40;;;14.90;71.60;;;;;;5063388;28;20203;-93
2022/06/02 06:27:27;;;;;;;11.73;8.77;;;15.00;72.20;;;;;;5041302;28;20208;-95
2022/06/02 06:30:11;;;;;;;34.00;12.90;;;15.10;71.00;;;;;;5037579;28;20231;-94
2022/06/02 06:32:54;;;;;;;17.17;10.53;;;15.20;71.70;;;;;;5037225;28;20225;-95
2022/06/02 06:35:41;;;;;;;16.67;9.40;;;15.20;71.80;;;;;;5036895;28;20205;-95
2022/06/02 06:38:45;;;;;;;13.00;8.70;;;15.30;71.80;;;;;;5027141;28;20202;-94
2022/06/02 06:41:46;;;;;;;11.40;8.27;;;15.40;72.00;;;;;;5047111;28;20264;-93
2022/06/02 06:44:20;;;;;;;19.00;10.23;;;15.50;71.60;;;;;;5051519;28;20203;-93
2022/06/02 06:46:55;;;;;;;17.67;10.47;;;15.60;70.80;;;;;;5044039;28;20206;-95
2022/06/02 06:49:37;;;;;;;19.10;10.17;;;15.70;71.00;;;;;;5034255;28;20658;-93
2022/06/02 06:52:24;;;;;;;20.73;11.77;;;15.80;71.10;;;;;;5041477;28;20227;-94
2022/06/02 06:55:06;;;;;;;12.57;9.33;;;15.90;70.90;;;;;;5043182;28;20198;-93
2022/06/02 06:57:43;;;;;;;10.50;8.70;;;16.00;70.50;;;;;;5030267;28;20227;-94
2022/06/02 07:03:15;;;;;;;24.10;10.57;;;16.20;70.10;;;;;;5099452;22;20259;-92
2022/06/02 07:05:49;;;;;;;38.80;11.97;;;16.20;69.20;;;;;;5084625;28;20207;-92
2022/06/02 07:08:29;;;;;;;39.43;15.00;;;16.30;69.30;;;;;;5058408;28;20566;-94
2022/06/02 07:11:08;;;;;;;100.53;20.70;;;16.30;69.10;;;;;;5038719;28;20288;-95
2022/06/02 07:13:44;;;;;;;18.23;9.70;;;16.40;69.10;;;;;;5057079;28;20295;-92
2022/06/02 07:16:19;;;;;;;17.27;10.50;;;16.50;68.50;;;;;;5061120;28;20296;-96
2022/06/02 07:18:56;;;;;;;14.63;10.93;;;16.50;68.10;;;;;;5081348;28;20219;-95
2022/06/02 07:21:32;;;;;;;16.83;11.37;;;16.60;68.10;;;;;;5090290;28;20189;-96
2022/06/02 07:24:12;;;;;;;15.30;10.63;;;16.70;68.50;;;;;;5077145;28;20198;-95
2022/06/02 07:26:52;;;;;;;14.87;10.20;;;16.80;68.00;;;;;;5082503;28;20244;-95
2022/06/02 07:29:32;;;;;;;20.30;11.13;;;16.80;67.70;;;;;;5096823;28;20347;-94
2022/06/02 07:32:24;;;;;;;15.43;11.13;;;16.90;67.50;;;;;;5096402;28;20189;-94
2022/06/02 07:35:22;;;;;;;14.40;9.57;;;17.00;67.10;;;;;;5060743;28;20204;-94
2022/06/02 07:38:00;;;;;;;19.17;10.93;;;17.00;66.80;;;;;;5088610;28;20205;-95
2022/06/02 07:40:43;;;;;;;19.77;10.93;;;17.10;66.90;;;;;;5096728;28;20209;-94
2022/06/02 07:43:42;;;;;;;18.87;10.33;;;17.20;66.50;;;;;;5096060;28;20186;-94
2022/06/02 07:46:21;;;;;;;20.67;11.53;;;17.20;66.40;;;;;;5079254;28;20185;-94
2022/06/02 07:49:23;;;;;;;12.83;8.83;;;17.40;66.60;;;;;;5097526;28;20229;-94
2022/06/02 07:51:58;;;;;;;34.00;15.50;;;17.50;66.20;;;;;;5118661;22;20182;-96
2022/06/02 07:55:08;;;;;;;14.70;8.47;;;17.50;65.90;;;;;;5134539;28;20199;-92
2022/06/02 07:57:46;;;;;;;12.77;8.47;;;17.60;66.00;;;;;;5138515;27;20201;-92
2022/06/02 08:00:18;;;;;;;76.20;16.10;;;17.70;65.60;;;;;;5134807;28;20187;-95
2022/06/02 08:03:08;;;;;;;18.77;9.53;;;17.80;65.30;;;;;;5135429;28;20196;-93
2022/06/02 08:05:47;;;;;;;10.10;7.70;;;17.90;65.00;;;;;;5126632;28;20227;-96
2022/06/02 08:08:30;;;;;;;16.40;8.63;;;18.00;65.20;;;;;;5109381;28;20216;-95
2022/06/02 08:11:07;;;;;;;16.03;9.33;;;18.10;64.80;;;;;;5104931;28;20324;-93
2022/06/02 08:14:16;;;;;;;10.70;7.07;;;18.20;64.00;;;;;;5119180;28;20197;-94
2022/06/02 08:16:56;;;;;;;29.83;10.53;;;18.30;63.90;;;;;;5121512;27;20301;-92
2022/06/02 08:19:41;;;;;;;12.00;7.90;;;18.40;64.10;;;;;;5121168;28;20206;-95
2022/06/02 08:41:49;;;;;;;9.10;7.63;;;19.10;61.80;;;;;;5063328;28;20231;-96
2022/06/02 09:04:25;;;;;;;14.73;8.50;;;20.50;60.00;;;;;;5091971;28;20211;-96
2022/06/02 09:07:32;;;;;;;11.53;7.13;;;20.70;59.60;;;;;;5088802;28;20200;-96
2022/06/02 09:10:40;;;;;;;8.57;6.40;;;21.00;59.90;;;;;;5069920;28;20223;-96
2022/06/02 09:14:18;;;;;;;11.67;8.17;;;21.20;58.10;;;;;;5061361;28;20212;-96
2022/06/02 09:27:43;;;;;;;11.27;6.87;;;22.10;57.20;;;;;;5053064;28;20186;-96
2022/06/02 09:37:45;;;;;;;11.43;7.60;;;22.70;55.30;;;;;;5236804;22;20312;-96
2022/06/02 09:44:23;;;;;;;9.97;7.27;;;23.00;53.30;;;;;;5077130;28;20195;-96
2022/06/02 09:54:07;;;;;;;13.47;8.17;;;23.30;53.40;;;;;;5079723;28;20203;-96
2022/06/02 10:00:19;;;;;;;8.87;5.17;;;23.70;52.70;;;;;;5031325;28;20284;-96
2022/06/02 10:03:05;;;;;;;8.70;6.53;;;23.80;52.50;;;;;;5035601;28;20663;-96
2022/06/02 10:05:52;;;;;;;15.07;8.53;;;23.90;51.00;;;;;;5032426;28;20203;-96
2022/06/02 10:08:34;;;;;;;12.23;7.53;;;24.00;51.10;;;;;;5031399;28;20255;-96
2022/06/02 10:11:22;;;;;;;8.23;6.33;;;24.10;52.00;;;;;;5032353;28;20687;-96
2022/06/02 10:17:03;;;;;;;28.50;15.17;;;24.20;50.00;;;;;;5225760;22;20326;-96
2022/06/02 10:23:08;;;;;;;16.47;9.33;;;24.30;50.10;;;;;;5046899;28;20253;-96
2022/06/02 10:26:04;;;;;;;15.17;9.30;;;24.40;50.70;;;;;;5072698;28;20210;-96
2022/06/02 10:32:23;;;;;;;14.43;9.57;;;24.40;49.60;;;;;;5014917;28;20197;-96
2022/06/02 10:38:42;;;;;;;19.57;6.63;;;24.60;49.60;;;;;;5012497;28;20223;-95
2022/06/02 10:42:01;;;;;;;9.87;7.10;;;24.70;49.60;;;;;;5062577;28;20708;-96
2022/06/02 10:47:53;;;;;;;22.57;8.07;;;24.90;48.20;;;;;;5417262;22;20278;-96
2022/06/02 10:50:42;;;;;;;9.23;6.57;;;25.00;48.40;;;;;;5071219;28;20233;-95
2022/06/02 10:53:51;;;;;;;10.23;7.17;;;25.10;48.70;;;;;;5055561;28;20254;-96
2022/06/02 11:03:10;;;;;;;13.63;7.30;;;25.40;47.10;;;;;;5082508;22;20226;-95
2022/06/02 11:06:13;;;;;;;11.20;6.83;;;25.50;47.40;;;;;;5042180;28;20278;-95
2022/06/02 11:09:33;;;;;;;11.40;7.10;;;25.60;47.70;;;;;;5053200;22;20657;-92
2022/06/02 11:16:03;;;;;;;7.83;5.83;;;25.90;47.90;;;;;;5064884;28;20242;-95
2022/06/02 11:19:05;;;;;;;9.93;6.87;;;26.00;47.20;;;;;;5066923;28;20290;-94
2022/06/02 11:28:44;;;;;;;;;;;;;;;;;;;;;
2022/06/02 11:48:23;;;;;;;58.80;16.50;;;27.00;45.50;;;;;;4947601;29;20223;-91
2022/06/02 11:51:29;;;;;;;17.00;7.97;;;27.10;45.20;;;;;;4980629;28;20670;-93
2022/06/02 11:58:22;;;;;;;13.53;6.93;;;27.20;44.10;;;;;;5043404;22;20246;-94
2022/06/02 12:01:34;;;;;;;12.67;7.77;;;27.30;44.50;;;;;;4970766;28;20214;-95
2022/06/02 12:08:09;;;;;;;8.00;6.03;;;27.40;44.20;;;;;;5069770;22;20232;-95
2022/06/02 12:14:50;;;;;;;21.33;8.63;;;27.60;43.90;;;;;;5066091;22;20273;-94
2022/06/02 12:17:32;;;;;;;12.03;8.23;;;27.70;43.90;;;;;;5072450;28;20204;-92
2022/06/02 12:24:03;;;;;;;12.87;8.10;;;27.90;42.50;;;;;;4962812;28;20194;-94
2022/06/02 12:26:49;;;;;;;14.03;7.87;;;27.90;43.00;;;;;;5066641;28;20238;-92
2022/06/02 12:29:34;;;;;;;15.33;7.10;;;27.90;42.30;;;;;;5057933;28;20606;-93
2022/06/02 12:32:37;;;;;;;9.40;7.07;;;28.00;43.30;;;;;;5057220;28;20199;-93
2022/06/02 12:35:31;;;;;;;11.90;7.87;;;28.10;43.20;;;;;;5051123;28;20575;-94
2022/06/02 12:38:28;;;;;;;11.63;8.27;;;28.20;43.40;;;;;;5051024;28;20211;-92
2022/06/02 12:41:24;;;;;;;14.17;8.77;;;28.30;42.50;;;;;;5051329;28;20211;-94
2022/06/02 12:44:38;;;;;;;14.73;8.43;;;28.40;41.60;;;;;;5063236;28;20533;-92
2022/06/02 12:47:31;;;;;;;12.53;8.83;;;28.50;40.80;;;;;;5066397;28;20206;-92
2022/06/02 12:50:25;;;;;;;15.07;8.97;;;28.60;40.10;;;;;;5069209;28;20222;-91
2022/06/02 12:53:30;;;;;;;10.10;7.47;;;28.60;40.10;;;;;;5067920;28;20211;-96
2022/06/02 12:56:15;;;;;;;16.60;7.17;;;28.60;39.80;;;;;;5072262;28;20202;-92
2022/06/02 12:59:21;;;;;;;7.70;5.80;;;28.60;39.50;;;;;;5069405;28;20257;-91
2022/06/02 13:02:08;;;;;;;11.97;6.90;;;28.60;40.00;;;;;;5073029;28;20269;-92
2022/06/02 13:05:12;;;;;;;11.33;6.83;;;28.60;40.10;;;;;;5071006;28;20195;-93
2022/06/02 13:15:06;;;;;;;9.00;5.73;;;28.70;39.80;;;;;;5037985;28;20211;-96
2022/06/02 13:24:32;;;;;;;9.17;6.17;;;28.80;39.20;;;;;;5013585;28;20240;-93
2022/06/02 13:34:08;;;;;;;5.73;4.27;;;29.10;39.00;;;;;;5149922;22;20753;-95
2022/06/02 13:37:30;;;;;;;16.77;6.40;;;29.30;39.10;;;;;;5056243;28;20203;-95
2022/06/02 13:40:29;;;;;;;14.87;8.03;;;29.40;39.40;;;;;;5019735;28;20208;-95
2022/06/02 13:43:31;;;;;;;15.87;9.20;;;29.50;38.70;;;;;;4977607;28;20250;-94
2022/06/02 13:47:04;;;;;;;23.63;8.57;;;29.60;38.30;;;;;;5066254;28;20212;-96
2022/06/02 13:50:13;;;;;;;13.70;7.97;;;29.60;38.70;;;;;;5026801;28;20219;-92
2022/06/02 13:53:31;;;;;;;12.00;7.23;;;29.80;39.50;;;;;;5001782;28;20676;-92
2022/06/02 13:59:36;;;;;;;10.20;6.90;;;29.80;37.80;;;;;;5058972;28;20245;-92
2022/06/02 14:02:30;;;;;;;9.80;6.90;;;29.80;38.00;;;;;;5066203;28;20225;-91
2022/06/02 14:05:18;;;;;;;18.60;6.63;;;29.70;38.60;;;;;;5063857;28;20191;-92
2022/06/02 14:08:08;;;;;;;13.90;6.07;;;29.70;38.60;;;;;;5053276;28;20311;-92
2022/06/02 14:14:48;;;;;;;11.47;6.10;;;29.60;37.90;;;;;;5065513;22;20279;-95
2022/06/02 14:17:30;;;;;;;10.57;6.67;;;29.50;37.70;;;;;;5019028;28;20207;-94
2022/06/02 14:20:18;;;;;;;10.73;6.83;;;29.40;38.30;;;;;;5019756;28;20620;-93
2022/06/02 14:23:41;;;;;;;9.60;6.67;;;29.30;38.50;;;;;;5055289;28;20225;-90
2022/06/02 14:26:24;;;;;;;15.40;8.10;;;29.20;38.10;;;;;;5056716;28;20932;-91
2022/06/02 14:29:09;;;;;;;13.50;9.23;;;29.10;38.20;;;;;;5063174;28;20269;-92
2022/06/02 14:32:34;;;;;;;15.37;8.00;;;28.90;37.90;;;;;;5063820;28;20304;-93
2022/06/02 14:38:38;;;;;;;19.50;10.53;;;28.70;38.20;;;;;;5017017;28;20231;-93
2022/06/02 14:41:11;;;;;;;15.97;8.93;;;28.60;38.60;;;;;;5045133;28;20200;-91
2022/06/02 14:44:11;;;;;;;12.97;7.80;;;28.50;38.90;;;;;;5049413;28;20232;-89
2022/06/02 14:46:59;;;;;;;9.60;7.43;;;28.50;39.10;;;;;;5049056;28;20291;-95
2022/06/02 14:49:40;;;;;;;9.20;7.53;;;28.50;38.70;;;;;;5048007;28;20211;-91
2022/06/02 14:52:32;;;;;;;11.03;7.67;;;28.50;39.10;;;;;;5052912;28;20228;-94
2022/06/02 14:55:12;;;;;;;11.30;7.17;;;28.40;38.70;;;;;;5053537;28;20223;-91
2022/06/02 14:57:44;;;;;;;9.80;7.47;;;28.40;39.10;;;;;;5049251;28;20265;-91
2022/06/02 15:00:24;;;;;;;8.40;6.37;;;28.40;39.20;;;;;;5049695;28;20546;-92
2022/06/02 15:03:24;;;;;;;14.53;8.93;;;28.40;38.80;;;;;;5045325;28;20212;-93
2022/06/02 15:06:21;;;;;;;8.90;6.37;;;28.30;38.70;;;;;;5057718;28;20227;-95
2022/06/02 15:09:12;;;;;;;15.00;6.30;;;28.30;39.50;;;;;;5041931;28;20271;-92
2022/06/02 15:12:01;;;;;;;14.50;6.13;;;28.30;41.10;;;;;;5046104;28;20745;-90
2022/06/02 15:14:50;;;;;;;14.23;6.70;;;28.30;41.50;;;;;;5036929;28;20200;-92
2022/06/02 15:17:59;;;;;;;9.63;6.27;;;28.20;41.30;;;;;;5039874;28;20299;-93
2022/06/02 15:26:35;;;;;;;12.47;5.37;;;28.00;41.30;;;;;;5066224;22;20238;-92
2022/06/02 15:29:37;;;;;;;13.27;6.67;;;28.00;41.70;;;;;;5057731;28;20205;-91
2022/06/02 15:32:31;;;;;;;8.87;5.10;;;27.90;42.10;;;;;;5059486;28;20228;-92
2022/06/02 15:35:40;;;;;;;26.33;10.97;;;27.80;42.00;;;;;;5057358;28;20209;-94
2022/06/02 15:38:48;;;;;;;11.57;5.60;;;27.70;42.20;;;;;;5048836;28;20599;-92
2022/06/02 15:42:16;;;;;;;13.43;5.77;;;27.60;42.30;;;;;;5043205;28;20728;-91
2022/06/02 15:45:35;;;;;;;7.73;3.97;;;27.40;42.50;;;;;;5046092;28;20242;-91
2022/06/02 15:48:37;;;;;;;11.50;5.87;;;27.30;42.90;;;;;;5051197;28;20208;-93
2022/06/02 15:51:41;;;;;;;9.30;5.80;;;27.20;42.70;;;;;;5052996;28;20316;-93
2022/06/02 15:54:57;;;;;;;8.70;5.33;;;27.20;42.70;;;;;;5053686;28;20223;-91
2022/06/02 15:58:10;;;;;;;11.27;5.60;;;27.10;43.10;;;;;;5059473;28;20208;-95
2022/06/02 16:01:15;;;;;;;10.80;4.63;;;27.00;43.20;;;;;;5058223;28;20196;-92
2022/06/02 16:04:28;;;;;;;7.77;4.33;;;26.90;43.20;;;;;;5049548;28;20206;-93
2022/06/02 16:07:35;;;;;;;13.40;5.93;;;26.90;43.30;;;;;;5063661;28;20227;-90
2022/06/02 16:11:15;;;;;;;11.23;5.43;;;26.90;43.30;;;;;;5037903;28;20257;-93
2022/06/02 16:14:31;;;;;;;13.30;6.43;;;26.80;43.30;;;;;;4984343;28;20306;-92
2022/06/02 16:17:52;;;;;;;8.73;4.60;;;26.70;43.50;;;;;;5032460;28;20208;-90
2022/06/02 16:20:41;;;;;;;10.13;5.07;;;26.70;43.50;;;;;;5014103;28;20198;-92
2022/06/02 16:24:11;;;;;;;15.97;7.37;;;26.70;43.70;;;;;;5018053;28;20202;-95
2022/06/02 16:26:57;;;;;;;9.27;5.10;;;26.60;43.60;;;;;;4929738;29;20200;-92
2022/06/02 16:33:15;;;;;;;9.13;4.73;;;26.50;43.60;;;;;;5020705;28;20224;-92
2022/06/02 16:36:10;;;;;;;8.40;4.03;;;26.30;43.90;;;;;;5031933;28;20695;-93
2022/06/02 16:38:52;;;;;;;7.67;3.80;;;26.20;44.00;;;;;;5029066;28;20201;-93
2022/06/02 16:41:48;;;;;;;11.13;4.63;;;26.10;44.20;;;;;;5032404;28;20657;-92
2022/06/02 16:44:57;;;;;;;7.00;3.93;;;26.00;44.40;;;;;;5025034;28;20233;-91
2022/06/02 16:47:40;;;;;;;12.67;5.03;;;25.90;44.40;;;;;;5027744;28;20300;-94
2022/06/02 16:51:01;;;;;;;11.20;5.03;;;25.80;44.50;;;;;;5032519;28;20215;-92
2022/06/02 16:57:04;;;;;;;12.40;5.53;;;25.50;44.80;;;;;;5028413;28;20215;-94
2022/06/02 17:00:01;;;;;;;8.77;4.23;;;25.30;45.00;;;;;;5029020;28;20666;-93
2022/06/02 17:02:48;;;;;;;9.67;4.63;;;25.20;45.20;;;;;;5001757;28;20655;-93
2022/06/02 17:05:38;;;;;;;11.20;5.47;;;25.00;45.30;;;;;;5023471;28;20208;-91
2022/06/02 17:08:27;;;;;;;15.03;6.07;;;24.80;45.60;;;;;;5022915;28;20266;-91
2022/06/02 17:11:07;;;;;;;10.83;4.90;;;24.70;45.80;;;;;;4982871;28;20224;-92
2022/06/02 17:13:44;;;;;;;7.70;3.97;;;24.50;45.70;;;;;;5030786;28;20208;-92
2022/06/02 17:16:43;;;;;;;8.47;4.07;;;24.40;46.00;;;;;;5031331;28;20205;-94
2022/06/02 17:19:44;;;;;;;13.67;5.13;;;24.30;46.60;;;;;;5031444;28;20212;-92
2022/06/02 17:22:53;;;;;;;11.93;5.53;;;24.20;46.70;;;;;;5031475;28;20237;-92
2022/06/02 17:26:08;;;;;;;13.00;5.40;;;24.20;47.00;;;;;;5025801;28;20863;-92
2022/06/02 17:29:12;;;;;;;8.43;3.50;;;24.10;47.10;;;;;;4988453;28;20293;-93
2022/06/02 17:32:28;;;;;;;8.17;3.80;;;24.00;47.10;;;;;;4988390;28;20267;-92
2022/06/02 17:35:19;;;;;;;7.10;3.00;;;23.90;47.10;;;;;;4901474;29;20234;-93
2022/06/02 17:40:49;;;;;;;9.03;3.67;;;23.70;47.30;;;;;;5106625;22;20238;-93
2022/06/02 17:43:37;;;;;;;8.93;4.23;;;23.60;47.30;;;;;;5051037;28;20203;-92
2022/06/02 17:46:36;;;;;;;8.97;3.97;;;23.50;47.50;;;;;;5051139;28;20273;-92
2022/06/02 17:49:33;;;;;;;8.17;3.33;;;23.50;47.90;;;;;;5050689;28;20214;-92
2022/06/02 17:52:30;;;;;;;7.80;3.23;;;23.40;47.70;;;;;;5051210;28;20686;-92
2022/06/02 17:55:13;;;;;;;8.07;3.17;;;23.30;48.00;;;;;;5070314;28;20234;-92